Time;durP1;ratioP1;P1;durP2;ratioP2;P2;SDS_P1;SDS_P2;PMS_P1;PMS_P2;Temp;Humidity;BMP_temperature;BMP_pressure;BME280_temperature;BME280_humidity;BME280_pressure;Samples;Min_cycle;Max_cycle;Signal;HPM_P1;HPM_P2
2021/06/20 00:00:16;;;;;;;22.10;12.88;;;26.10;99.90;;;;;;5053677;28;20510;-50
2021/06/20 00:02:43;;;;;;;17.55;12.70;;;26.00;99.90;;;;;;5060613;28;20731;-50
2021/06/20 00:05:11;;;;;;;18.27;12.88;;;26.10;99.90;;;;;;5062802;28;20423;-49
2021/06/20 00:07:40;;;;;;;16.10;13.00;;;26.30;99.90;;;;;;5056803;28;21311;-51
2021/06/20 00:10:08;;;;;;;19.90;12.80;;;26.30;99.90;;;;;;5060614;28;20472;-50
2021/06/20 00:12:38;;;;;;;19.52;14.00;;;26.30;99.90;;;;;;5054529;28;20809;-50
2021/06/20 00:15:09;;;;;;;19.00;12.68;;;26.10;99.90;;;;;;5060530;28;20488;-50
2021/06/20 00:17:36;;;;;;;21.05;12.60;;;25.80;99.90;;;;;;5052633;28;20413;-49
2021/06/20 00:20:04;;;;;;;18.23;12.95;;;25.80;99.90;;;;;;5051942;28;20385;-49
2021/06/20 00:22:30;;;;;;;19.33;11.80;;;25.80;99.90;;;;;;5052712;28;20380;-49
2021/06/20 00:24:55;;;;;;;16.17;11.53;;;25.90;99.90;;;;;;5053805;28;20394;-50
2021/06/20 00:27:21;;;;;;;15.50;11.07;;;26.00;99.90;;;;;;5070702;28;20382;-49
2021/06/20 00:29:47;;;;;;;16.13;11.50;;;26.10;99.90;;;;;;5072000;28;20398;-53
2021/06/20 00:32:12;;;;;;;19.70;11.30;;;26.20;99.90;;;;;;5064675;28;20476;-50
2021/06/20 00:34:38;;;;;;;19.38;11.40;;;26.20;99.90;;;;;;5052245;28;20453;-49
2021/06/20 00:37:05;;;;;;;14.52;10.57;;;26.30;99.90;;;;;;5051624;28;20863;-50
2021/06/20 00:39:30;;;;;;;16.65;11.25;;;26.20;99.90;;;;;;5052118;28;20382;-50
2021/06/20 00:41:56;;;;;;;18.90;10.65;;;26.30;99.90;;;;;;5051282;28;20382;-50
2021/06/20 00:44:22;;;;;;;13.77;9.97;;;26.30;99.90;;;;;;5052081;28;20860;-49
2021/06/20 00:46:47;;;;;;;17.97;11.20;;;26.30;99.90;;;;;;5051113;28;20381;-53
2021/06/20 00:49:13;;;;;;;16.13;10.57;;;26.30;99.90;;;;;;5051264;28;20392;-49
2021/06/20 00:51:40;;;;;;;15.23;10.23;;;26.30;99.90;;;;;;5050973;28;20395;-49
2021/06/20 00:54:08;;;;;;;18.85;10.75;;;26.40;99.90;;;;;;5051117;28;20867;-50
2021/06/20 00:56:36;;;;;;;13.98;10.32;;;26.40;99.90;;;;;;5051782;28;20797;-49
2021/06/20 00:59:03;;;;;;;18.15;10.77;;;26.40;99.90;;;;;;5049962;28;20480;-52
2021/06/20 01:01:33;;;;;;;13.80;10.35;;;26.40;99.90;;;;;;5058098;28;20389;-50
2021/06/20 01:03:59;;;;;;;20.23;10.97;;;26.40;99.90;;;;;;5060072;28;20421;-49
2021/06/20 01:06:27;;;;;;;18.80;10.77;;;26.40;99.90;;;;;;5061039;28;20388;-49
2021/06/20 01:08:52;;;;;;;19.50;10.70;;;26.50;99.90;;;;;;5070499;28;20454;-52
2021/06/20 01:11:19;;;;;;;22.95;10.77;;;26.50;99.90;;;;;;5058004;28;20886;-51
2021/06/20 01:13:45;;;;;;;16.90;9.77;;;26.60;99.90;;;;;;5051553;28;20434;-49
2021/06/20 01:16:11;;;;;;;17.98;9.93;;;26.60;99.90;;;;;;5050626;28;20405;-50
2021/06/20 01:18:37;;;;;;;20.85;10.52;;;26.70;99.90;;;;;;5051314;28;20511;-51
2021/06/20 01:21:04;;;;;;;19.53;11.10;;;26.70;99.90;;;;;;5050731;28;20396;-50
2021/06/20 01:23:30;;;;;;;22.73;10.43;;;26.60;99.90;;;;;;5051156;28;20388;-49
2021/06/20 01:25:56;;;;;;;26.83;10.88;;;26.50;99.90;;;;;;5050707;28;20386;-50
2021/06/20 01:28:26;;;;;;;21.05;10.07;;;26.40;99.90;;;;;;5051136;28;20468;-49
2021/06/20 01:30:58;;;;;;;26.90;11.40;;;26.40;99.90;;;;;;5050516;28;20386;-53
2021/06/20 01:33:24;;;;;;;24.13;11.13;;;26.20;99.90;;;;;;5049724;28;20800;-49
2021/06/20 01:35:49;;;;;;;29.07;10.50;;;26.20;99.90;;;;;;5051452;28;20506;-52
2021/06/20 01:38:15;;;;;;;31.23;10.65;;;26.20;99.90;;;;;;5061340;28;20419;-49
2021/06/20 01:40:41;;;;;;;26.05;10.77;;;26.20;99.90;;;;;;5053380;28;20476;-49
2021/06/20 01:43:07;;;;;;;29.50;10.88;;;26.10;99.90;;;;;;5050258;28;20933;-49
2021/06/20 01:45:33;;;;;;;27.30;9.88;;;26.10;99.90;;;;;;5050709;28;20396;-51
2021/06/20 01:47:59;;;;;;;28.15;9.25;;;26.10;99.90;;;;;;5050090;28;20386;-50
2021/06/20 01:50:26;;;;;;;25.07;9.40;;;26.10;99.90;;;;;;5050849;28;20384;-49
2021/06/20 01:53:05;;;;;;;26.00;10.80;;;26.10;99.90;;;;;;5050128;28;20918;-52
2021/06/20 01:55:31;;;;;;;23.50;10.25;;;26.10;99.90;;;;;;5050161;28;20965;-49
2021/06/20 01:57:57;;;;;;;30.65;11.00;;;26.00;99.90;;;;;;5049453;28;20375;-52
2021/06/20 02:00:23;;;;;;;30.95;10.75;;;26.00;99.90;;;;;;5049113;28;20378;-50
2021/06/20 02:02:48;;;;;;;29.75;10.00;;;26.00;99.90;;;;;;5051011;28;20405;-49
2021/06/20 02:05:14;;;;;;;24.90;10.20;;;26.00;99.90;;;;;;5049559;28;20416;-52
2021/06/20 02:07:40;;;;;;;27.52;9.90;;;26.00;99.90;;;;;;5050377;28;20447;-49
2021/06/20 02:10:09;;;;;;;29.00;9.95;;;25.90;99.90;;;;;;5049630;28;20798;-49
2021/06/20 02:12:35;;;;;;;26.50;9.90;;;25.90;99.90;;;;;;5050317;28;20386;-51
2021/06/20 02:15:01;;;;;;;25.90;9.48;;;26.00;99.90;;;;;;5060441;28;20409;-50
2021/06/20 02:17:29;;;;;;;31.50;10.05;;;25.80;99.90;;;;;;5049433;28;20389;-49
2021/06/20 02:20:07;;;;;;;24.38;9.80;;;25.80;99.90;;;;;;5049153;28;20458;-49
2021/06/20 02:22:33;;;;;;;28.08;10.70;;;25.60;99.90;;;;;;5050409;28;20390;-49
2021/06/20 02:24:58;;;;;;;29.23;10.00;;;25.60;99.90;;;;;;5049157;28;20388;-49
2021/06/20 02:27:25;;;;;;;22.83;10.00;;;25.60;99.90;;;;;;5048774;28;20812;-49
2021/06/20 02:29:53;;;;;;;25.25;10.10;;;25.50;99.90;;;;;;5050048;28;20400;-52
2021/06/20 02:32:19;;;;;;;23.17;10.02;;;25.40;99.90;;;;;;5049775;28;20780;-50
2021/06/20 02:34:46;;;;;;;28.80;11.25;;;25.40;99.90;;;;;;5050109;28;20512;-50
2021/06/20 02:37:12;;;;;;;24.90;10.43;;;25.20;99.90;;;;;;5049388;28;20374;-49
2021/06/20 02:39:38;;;;;;;30.17;10.70;;;25.20;99.90;;;;;;5049850;28;20385;-49
2021/06/20 02:42:05;;;;;;;33.17;12.23;;;25.10;99.90;;;;;;5049149;28;20385;-49
2021/06/20 02:44:30;;;;;;;29.63;11.02;;;25.10;99.90;;;;;;5049960;28;20385;-50
2021/06/20 02:47:01;;;;;;;24.77;9.45;;;25.10;99.90;;;;;;5049034;28;20389;-49
2021/06/20 02:49:28;;;;;;;23.13;9.70;;;25.00;99.90;;;;;;5064994;28;20476;-50
2021/06/20 02:51:55;;;;;;;28.92;10.63;;;24.90;99.90;;;;;;5049173;28;20373;-52
2021/06/20 02:54:21;;;;;;;24.98;9.63;;;25.00;99.90;;;;;;5049719;28;20370;-50
2021/06/20 02:56:46;;;;;;;29.45;9.98;;;25.00;99.90;;;;;;5049768;28;20871;-49
2021/06/20 02:59:12;;;;;;;25.13;10.33;;;25.00;99.90;;;;;;5049101;28;20377;-50
2021/06/20 03:01:38;;;;;;;25.17;9.30;;;24.90;99.90;;;;;;5049886;28;20709;-49
2021/06/20 03:04:04;;;;;;;26.35;9.10;;;24.70;99.90;;;;;;5048633;28;20436;-51
2021/06/20 03:06:30;;;;;;;21.52;8.35;;;24.60;99.90;;;;;;5049755;28;20463;-50
2021/06/20 03:08:56;;;;;;;23.07;10.00;;;24.50;99.90;;;;;;5049148;28;20869;-51
2021/06/20 03:11:21;;;;;;;19.35;8.80;;;24.40;99.90;;;;;;5049622;28;20445;-49
2021/06/20 03:13:48;;;;;;;23.17;9.68;;;24.30;99.90;;;;;;5049123;28;20807;-50
2021/06/20 03:16:17;;;;;;;24.65;9.15;;;24.40;99.90;;;;;;5048041;28;20459;-50
2021/06/20 03:18:43;;;;;;;22.02;8.80;;;24.30;99.90;;;;;;5048871;28;20434;-51
2021/06/20 03:21:09;;;;;;;22.90;8.57;;;24.20;99.90;;;;;;5048743;28;20385;-51
2021/06/20 03:23:34;;;;;;;21.70;9.50;;;24.20;99.90;;;;;;5049657;28;20377;-50
2021/06/20 03:26:00;;;;;;;23.35;9.10;;;24.20;99.90;;;;;;5048614;28;20397;-50
2021/06/20 03:28:26;;;;;;;19.23;9.90;;;24.10;99.90;;;;;;5049554;28;20385;-50
2021/06/20 03:30:52;;;;;;;23.88;8.75;;;24.20;99.90;;;;;;5053012;28;20480;-53
2021/06/20 03:33:18;;;;;;;21.47;9.07;;;24.20;99.90;;;;;;5052711;28;20377;-50
2021/06/20 03:35:43;;;;;;;26.15;9.63;;;24.30;99.90;;;;;;5053452;28;20409;-51
2021/06/20 03:38:09;;;;;;;24.65;8.77;;;24.30;99.90;;;;;;5051292;28;20397;-50
2021/06/20 03:40:35;;;;;;;23.50;9.73;;;24.40;99.90;;;;;;5052907;28;20377;-50
2021/06/20 03:43:00;;;;;;;25.73;8.90;;;24.50;99.90;;;;;;5052502;28;20381;-50
2021/06/20 03:45:26;;;;;;;21.50;8.57;;;24.60;99.90;;;;;;5053277;28;20388;-49
2021/06/20 03:47:52;;;;;;;21.73;8.03;;;24.70;99.90;;;;;;5052626;28;20878;-53
2021/06/20 03:50:19;;;;;;;23.60;9.73;;;25.50;99.90;;;;;;5052445;28;20390;-50
2021/06/20 03:52:45;;;;;;;23.83;10.18;;;24.70;99.90;;;;;;5052990;28;20389;-49
2021/06/20 03:55:11;;;;;;;21.20;8.90;;;24.80;99.90;;;;;;5051874;28;20413;-49
2021/06/20 03:57:37;;;;;;;23.25;9.13;;;24.70;99.90;;;;;;5053078;28;20474;-50
2021/06/20 04:00:06;;;;;;;21.88;9.60;;;24.60;99.90;;;;;;5052010;28;20409;-49
2021/06/20 04:02:32;;;;;;;23.25;9.90;;;24.50;99.90;;;;;;5052569;28;20393;-49
2021/06/20 04:04:58;;;;;;;21.65;9.82;;;24.40;99.90;;;;;;5052014;28;20420;-50
2021/06/20 04:07:23;;;;;;;23.60;9.60;;;24.20;99.90;;;;;;5052735;28;20373;-51
2021/06/20 04:09:49;;;;;;;27.92;9.20;;;24.10;99.90;;;;;;5052702;28;20737;-50
2021/06/20 04:12:14;;;;;;;22.30;8.43;;;24.20;99.90;;;;;;5052102;28;20921;-50
2021/06/20 04:14:42;;;;;;;16.10;9.30;;;24.10;99.90;;;;;;5052351;28;20772;-50
2021/06/20 04:17:07;;;;;;;23.73;9.90;;;24.20;99.90;;;;;;5051870;28;20389;-50
2021/06/20 04:19:34;;;;;;;26.15;10.32;;;24.30;99.90;;;;;;5052447;28;20926;-51
2021/06/20 04:22:00;;;;;;;27.02;9.82;;;24.50;99.90;;;;;;5050400;28;20382;-55
2021/06/20 04:24:26;;;;;;;23.50;9.55;;;24.60;99.90;;;;;;5052517;28;20389;-50
2021/06/20 04:26:52;;;;;;;23.90;9.15;;;24.70;99.90;;;;;;5052419;28;20378;-51
2021/06/20 04:29:18;;;;;;;21.40;9.13;;;24.90;99.90;;;;;;5051729;28;20384;-50
2021/06/20 04:31:44;;;;;;;25.45;9.88;;;25.20;99.90;;;;;;5051842;28;20386;-50
2021/06/20 04:34:09;;;;;;;23.80;10.20;;;25.20;99.90;;;;;;5051642;28;20401;-51
2021/06/20 04:36:35;;;;;;;26.20;9.07;;;25.30;99.90;;;;;;5051931;28;20440;-50
2021/06/20 04:39:02;;;;;;;24.35;9.70;;;25.30;99.90;;;;;;5051509;28;20373;-49
2021/06/20 04:41:29;;;;;;;23.15;9.75;;;25.20;99.90;;;;;;5052286;28;20441;-50
2021/06/20 04:46:39;;;;;;;23.03;9.90;;;25.30;99.90;;;;;;5053683;28;20743;-49
2021/06/20 04:49:07;;;;;;;22.30;9.80;;;25.30;99.90;;;;;;5065427;28;20383;-49
2021/06/20 04:51:38;;;;;;;21.63;9.35;;;25.30;99.90;;;;;;5052176;28;20386;-49
2021/06/20 04:54:04;;;;;;;24.37;9.93;;;25.40;99.90;;;;;;5031577;28;20387;-49
2021/06/20 04:56:30;;;;;;;21.88;9.55;;;25.40;99.90;;;;;;5031927;28;20505;-49
2021/06/20 04:58:56;;;;;;;32.25;10.13;;;25.40;99.90;;;;;;5031307;28;20472;-52
2021/06/20 05:01:22;;;;;;;23.90;9.40;;;25.40;99.90;;;;;;5031723;28;20878;-49
2021/06/20 05:03:48;;;;;;;22.40;9.70;;;25.50;99.90;;;;;;5031679;28;20474;-49
2021/06/20 05:06:14;;;;;;;23.92;9.57;;;25.70;99.90;;;;;;5031174;28;20386;-49
2021/06/20 05:08:40;;;;;;;21.90;9.68;;;25.80;99.90;;;;;;5030312;28;20449;-49
2021/06/20 05:11:06;;;;;;;22.20;9.00;;;26.20;99.90;;;;;;5030911;28;20945;-49
2021/06/20 05:13:33;;;;;;;23.00;9.50;;;26.40;99.90;;;;;;5031603;28;20386;-50
2021/06/20 05:15:59;;;;;;;26.73;9.93;;;26.70;99.90;;;;;;5046838;28;20448;-49
2021/06/20 05:18:24;;;;;;;20.80;9.70;;;26.70;99.90;;;;;;5050958;28;20390;-49
2021/06/20 05:20:50;;;;;;;29.23;8.53;;;26.70;99.90;;;;;;5049868;28;20412;-49
2021/06/20 05:23:16;;;;;;;21.88;8.75;;;26.70;99.90;;;;;;5049858;28;20405;-49
2021/06/20 05:25:42;;;;;;;22.85;9.75;;;26.70;99.90;;;;;;5050892;28;20378;-50
2021/06/20 05:28:07;;;;;;;17.38;8.70;;;26.80;99.90;;;;;;5049436;28;20999;-49
2021/06/20 05:30:33;;;;;;;23.77;9.70;;;26.70;99.90;;;;;;5051304;28;20378;-49
2021/06/20 05:32:59;;;;;;;23.97;10.10;;;26.60;99.90;;;;;;5050168;28;20385;-49
2021/06/20 05:35:25;;;;;;;26.27;8.90;;;26.50;99.90;;;;;;5051170;28;20421;-50
2021/06/20 05:37:51;;;;;;;23.10;9.90;;;26.40;99.90;;;;;;5051637;28;20394;-50
2021/06/20 05:40:16;;;;;;;25.93;9.40;;;26.30;99.90;;;;;;5062013;28;20407;-49
2021/06/20 05:42:42;;;;;;;22.27;9.20;;;26.30;99.90;;;;;;5055688;28;20385;-49
2021/06/20 05:45:08;;;;;;;24.07;8.83;;;26.40;99.90;;;;;;5048790;28;20390;-50
2021/06/20 05:47:34;;;;;;;22.35;8.88;;;26.40;99.90;;;;;;5050077;28;20468;-51
2021/06/20 05:50:00;;;;;;;23.10;9.90;;;26.40;99.90;;;;;;5049414;28;20516;-51
2021/06/20 05:52:26;;;;;;;22.30;9.50;;;26.40;99.90;;;;;;5041969;28;20397;-50
2021/06/20 05:54:52;;;;;;;24.83;9.00;;;26.40;99.90;;;;;;5050296;28;20416;-50
2021/06/20 05:57:19;;;;;;;24.57;9.10;;;26.10;99.90;;;;;;5049502;28;20381;-50
2021/06/20 05:59:46;;;;;;;23.45;10.27;;;26.10;99.90;;;;;;5050047;28;20393;-50
2021/06/20 06:02:12;;;;;;;20.00;9.10;;;26.20;99.90;;;;;;5048232;28;20386;-51
2021/06/20 06:04:38;;;;;;;25.27;9.30;;;26.40;99.90;;;;;;5050191;28;20429;-50
2021/06/20 06:07:03;;;;;;;25.70;9.15;;;26.60;99.90;;;;;;5050913;28;20420;-50
2021/06/20 06:09:29;;;;;;;23.73;8.93;;;26.80;99.90;;;;;;5050198;28;20472;-50
2021/06/20 06:11:56;;;;;;;20.90;9.00;;;26.90;99.90;;;;;;5046220;28;20412;-54
2021/06/20 06:14:22;;;;;;;22.05;7.70;;;27.00;99.90;;;;;;5047174;28;20412;-48
2021/06/20 06:16:48;;;;;;;17.92;6.90;;;27.70;99.90;;;;;;5048823;28;20374;-48
2021/06/20 06:19:16;;;;;;;24.30;8.23;;;28.50;99.90;;;;;;5047631;28;20400;-50
2021/06/20 06:21:42;;;;;;;16.92;6.88;;;29.50;99.90;;;;;;5049463;28;20455;-50
2021/06/20 06:24:08;;;;;;;17.10;6.88;;;30.10;99.90;;;;;;5048691;28;20385;-50
2021/06/20 06:26:34;;;;;;;20.80;6.93;;;30.50;99.90;;;;;;5048431;28;20397;-51
2021/06/20 06:29:00;;;;;;;19.35;5.97;;;30.70;99.90;;;;;;5048206;28;20384;-51
2021/06/20 06:31:26;;;;;;;15.07;5.18;;;30.40;99.90;;;;;;5048905;28;20420;-49
2021/06/20 06:33:51;;;;;;;17.23;5.60;;;30.00;99.90;;;;;;5048817;28;20873;-48
2021/06/20 06:36:18;;;;;;;16.83;5.53;;;29.70;99.90;;;;;;5050821;28;20427;-50
2021/06/20 06:38:44;;;;;;;15.23;5.28;;;29.60;99.90;;;;;;5050809;28;20377;-49
2021/06/20 06:41:09;;;;;;;18.15;6.40;;;29.40;99.90;;;;;;5048724;28;20863;-49
2021/06/20 06:43:35;;;;;;;14.55;4.63;;;29.90;99.90;;;;;;5048707;28;20381;-49
2021/06/20 06:46:01;;;;;;;16.08;5.70;;;30.20;99.90;;;;;;5047712;28;20389;-53
2021/06/20 06:48:27;;;;;;;12.63;5.43;;;30.60;99.90;;;;;;5049262;28;20381;-49
2021/06/20 06:50:52;;;;;;;14.90;5.00;;;30.20;99.90;;;;;;5048162;28;20397;-49
2021/06/20 06:53:18;;;;;;;12.43;5.10;;;29.80;99.90;;;;;;5046430;28;21023;-50
2021/06/20 06:55:44;;;;;;;13.25;4.93;;;29.20;99.90;;;;;;5048354;28;20405;-49
2021/06/20 06:58:10;;;;;;;13.40;5.00;;;28.90;99.90;;;;;;5047623;28;20382;-49
2021/06/20 07:00:36;;;;;;;14.10;5.35;;;28.90;99.90;;;;;;5048526;28;20381;-50
2021/06/20 07:03:02;;;;;;;13.70;4.75;;;29.00;99.90;;;;;;5045416;28;20823;-50
2021/06/20 07:05:28;;;;;;;12.15;4.90;;;29.30;99.90;;;;;;5047706;28;20421;-50
2021/06/20 07:07:54;;;;;;;11.52;5.00;;;29.10;99.90;;;;;;5048862;28;20517;-51
2021/06/20 07:10:20;;;;;;;15.93;5.10;;;28.50;99.90;;;;;;5049627;28;20381;-49
2021/06/20 07:12:46;;;;;;;15.82;5.40;;;28.20;99.90;;;;;;5048516;28;20397;-49
2021/06/20 07:15:13;;;;;;;11.13;4.55;;;28.00;99.90;;;;;;5047605;28;20973;-50
2021/06/20 07:17:39;;;;;;;13.50;5.50;;;28.10;99.90;;;;;;5047299;28;20394;-49
2021/06/20 07:20:09;;;;;;;13.23;4.30;;;28.30;99.90;;;;;;5047716;28;20460;-50
2021/06/20 07:22:35;;;;;;;12.57;4.50;;;28.80;99.90;;;;;;5048819;28;20392;-50
2021/06/20 07:25:01;;;;;;;13.27;4.35;;;29.10;99.90;;;;;;5054970;28;20873;-50
2021/06/20 07:27:27;;;;;;;15.82;4.50;;;29.30;99.90;;;;;;5048140;28;20492;-51
2021/06/20 07:29:52;;;;;;;13.60;4.03;;;29.60;99.90;;;;;;5046055;28;20500;-51
2021/06/20 07:32:18;;;;;;;15.40;5.17;;;30.00;99.90;;;;;;5047472;28;20859;-50
2021/06/20 07:34:44;;;;;;;17.20;4.50;;;30.80;99.90;;;;;;5048603;28;20911;-50
2021/06/20 07:37:09;;;;;;;13.38;4.82;;;31.10;99.90;;;;;;5048169;28;20778;-50
2021/06/20 07:39:35;;;;;;;13.43;5.72;;;30.60;99.90;;;;;;5048718;28;20496;-50
2021/06/20 07:42:01;;;;;;;13.93;5.60;;;30.10;99.90;;;;;;5047961;28;20400;-51
2021/06/20 07:44:27;;;;;;;14.13;4.50;;;29.50;99.90;;;;;;5048245;28;20386;-50
2021/06/20 07:46:53;;;;;;;13.20;4.63;;;28.40;99.90;;;;;;5046300;28;20395;-50
2021/06/20 07:49:19;;;;;;;12.30;4.43;;;28.30;99.90;;;;;;5047313;28;20679;-50
2021/06/20 07:51:46;;;;;;;11.23;4.55;;;28.40;99.90;;;;;;5047071;28;20413;-50
2021/06/20 07:54:12;;;;;;;13.68;4.15;;;28.30;99.90;;;;;;5047308;28;20390;-51
2021/06/20 07:56:37;;;;;;;12.38;4.13;;;28.50;99.90;;;;;;5048343;28;20416;-50
2021/06/20 07:59:03;;;;;;;11.77;4.70;;;28.40;99.90;;;;;;5047696;28;20883;-49
2021/06/20 08:01:30;;;;;;;13.73;4.57;;;28.30;99.90;;;;;;5046415;28;20618;-50
2021/06/20 08:03:57;;;;;;;15.03;5.03;;;28.20;99.90;;;;;;5045996;28;20424;-49
2021/06/20 08:06:24;;;;;;;9.77;4.50;;;28.10;99.90;;;;;;5045637;28;20385;-49
2021/06/20 08:08:55;;;;;;;13.55;4.63;;;28.00;99.90;;;;;;5048082;28;20373;-50
2021/06/20 08:11:22;;;;;;;12.48;4.65;;;28.40;99.90;;;;;;5031317;28;20506;-50
2021/06/20 08:13:48;;;;;;;16.75;5.07;;;29.00;99.90;;;;;;5048005;28;20397;-50
2021/06/20 08:16:14;;;;;;;11.98;4.13;;;29.50;99.90;;;;;;5055034;28;20417;-51
2021/06/20 08:18:40;;;;;;;15.40;4.68;;;30.00;99.90;;;;;;5049580;28;21287;-50
2021/06/20 08:21:05;;;;;;;13.50;3.60;;;30.00;99.90;;;;;;5056591;28;20398;-51
2021/06/20 08:23:31;;;;;;;9.53;3.80;;;29.60;99.90;;;;;;5047317;28;20386;-51
2021/06/20 08:25:57;;;;;;;12.38;5.00;;;29.30;99.90;;;;;;5051667;28;20381;-54
2021/06/20 08:28:23;;;;;;;10.57;4.30;;;28.90;99.90;;;;;;5048510;28;20890;-50
2021/06/20 08:30:49;;;;;;;10.37;5.23;;;28.60;99.90;;;;;;5055656;28;20491;-49
2021/06/20 08:33:15;;;;;;;12.77;4.23;;;28.30;99.90;;;;;;5053332;28;20385;-50
2021/06/20 08:35:41;;;;;;;12.23;4.50;;;28.20;99.90;;;;;;5050828;28;20426;-50
2021/06/20 08:38:07;;;;;;;14.40;4.60;;;28.20;99.90;;;;;;5050375;28;20397;-49
2021/06/20 08:40:33;;;;;;;10.85;4.53;;;28.30;99.90;;;;;;5050915;28;20385;-50
2021/06/20 08:42:59;;;;;;;12.73;4.10;;;28.40;99.90;;;;;;5046170;28;20909;-54
2021/06/20 08:45:25;;;;;;;11.35;4.65;;;28.10;99.90;;;;;;5052548;28;20414;-49
2021/06/20 08:47:52;;;;;;;11.48;4.60;;;28.10;99.90;;;;;;5050624;28;20374;-50
2021/06/20 08:50:17;;;;;;;13.57;5.07;;;28.00;99.90;;;;;;5048374;28;20440;-50
2021/06/20 08:52:45;;;;;;;10.07;4.32;;;28.10;99.90;;;;;;5051911;28;20891;-50
2021/06/20 08:55:12;;;;;;;13.02;5.53;;;28.00;99.90;;;;;;5049644;28;20401;-50
2021/06/20 08:57:40;;;;;;;10.32;4.47;;;28.00;99.90;;;;;;5050642;28;20389;-51
2021/06/20 09:00:09;;;;;;;10.52;4.30;;;28.20;99.90;;;;;;5052602;28;20393;-51
2021/06/20 09:02:34;;;;;;;11.47;3.87;;;28.50;99.90;;;;;;5054462;28;20393;-50
2021/06/20 09:05:02;;;;;;;10.52;3.90;;;28.60;99.90;;;;;;5054080;28;20416;-54
2021/06/20 09:07:36;;;;;;;12.02;4.50;;;28.50;99.90;;;;;;5055092;28;20715;-52
2021/06/20 09:10:12;;;;;;;13.27;3.92;;;28.30;99.90;;;;;;5055470;28;20501;-51
2021/06/20 09:12:50;;;;;;;13.68;4.30;;;28.00;99.90;;;;;;5049822;28;20804;-49
2021/06/20 09:15:19;;;;;;;11.25;4.40;;;28.10;99.90;;;;;;5048689;28;20483;-50
2021/06/20 09:17:49;;;;;;;14.18;4.50;;;28.20;99.90;;;;;;5047347;28;20462;-51
2021/06/20 09:20:15;;;;;;;12.88;4.70;;;28.20;99.90;;;;;;5051102;28;20400;-49
2021/06/20 09:22:41;;;;;;;11.20;4.95;;;28.10;99.90;;;;;;5051387;28;20395;-49
2021/06/20 09:25:11;;;;;;;14.88;4.57;;;28.20;99.90;;;;;;5051455;28;20944;-49
2021/06/20 09:27:37;;;;;;;13.25;4.72;;;28.40;99.90;;;;;;5050727;28;20392;-49
2021/06/20 09:30:17;;;;;;;12.57;4.90;;;28.40;99.90;;;;;;5049230;28;20866;-49
2021/06/20 09:32:53;;;;;;;13.38;5.05;;;28.50;99.90;;;;;;5048508;28;20388;-49
2021/06/20 09:35:19;;;;;;;14.37;4.93;;;28.60;99.90;;;;;;5046648;28;20451;-49
2021/06/20 09:37:55;;;;;;;11.53;4.80;;;28.40;99.90;;;;;;5050087;28;20410;-49
2021/06/20 09:40:47;;;;;;;13.70;5.10;;;28.10;99.90;;;;;;5048408;28;20401;-49
2021/06/20 09:43:18;;;;;;;11.63;4.60;;;28.30;99.90;;;;;;5050048;28;20889;-49
2021/06/20 09:45:45;;;;;;;13.38;4.65;;;28.10;99.90;;;;;;5050329;28;20454;-49
2021/06/20 09:48:24;;;;;;;13.38;5.68;;;28.10;99.90;;;;;;5049844;28;20409;-49
2021/06/20 09:50:50;;;;;;;12.98;4.82;;;28.30;99.90;;;;;;5050114;28;20385;-49
2021/06/20 09:53:20;;;;;;;15.23;5.68;;;28.40;99.90;;;;;;5048818;28;20497;-50
2021/06/20 09:55:46;;;;;;;13.95;5.05;;;28.60;99.90;;;;;;5049222;28;20413;-50
2021/06/20 09:58:11;;;;;;;17.13;5.87;;;28.90;99.90;;;;;;5049180;28;20386;-50
2021/06/20 10:00:43;;;;;;;13.63;5.00;;;28.90;99.90;;;;;;5049027;28;20442;-49
2021/06/20 10:03:25;;;;;;;17.50;5.00;;;29.00;99.90;;;;;;5049370;28;20377;-50
2021/06/20 10:05:53;;;;;;;12.00;5.13;;;29.00;99.90;;;;;;5049983;28;20417;-50
2021/06/20 10:08:19;;;;;;;12.15;5.35;;;29.20;99.90;;;;;;5049370;28;20385;-49
2021/06/20 10:10:45;;;;;;;13.43;5.07;;;29.30;99.90;;;;;;5048211;28;20851;-50
2021/06/20 10:13:10;;;;;;;18.63;6.10;;;29.20;99.90;;;;;;5048762;28;20395;-51
2021/06/20 10:15:36;;;;;;;14.10;5.80;;;29.20;99.90;;;;;;5048696;28;20413;-49
2021/06/20 10:18:06;;;;;;;17.27;5.87;;;28.60;99.90;;;;;;5051635;28;21445;-53
2021/06/20 10:20:34;;;;;;;16.33;5.50;;;28.50;99.90;;;;;;5061527;28;20384;-50
2021/06/20 10:23:00;;;;;;;12.77;5.45;;;28.40;99.90;;;;;;5055738;28;20397;-53
2021/06/20 10:25:32;;;;;;;14.95;5.95;;;28.40;99.90;;;;;;5057805;28;20438;-51
2021/06/20 10:28:07;;;;;;;17.90;5.87;;;28.50;99.90;;;;;;5057526;28;20908;-49
2021/06/20 10:30:35;;;;;;;14.95;6.55;;;28.40;99.90;;;;;;5060655;28;20794;-50
2021/06/20 10:33:13;;;;;;;11.50;5.65;;;28.20;99.90;;;;;;5059761;28;20801;-52
2021/06/20 10:35:41;;;;;;;13.10;5.20;;;27.90;99.90;;;;;;5061654;28;20442;-50
2021/06/20 10:38:07;;;;;;;12.93;5.30;;;27.80;99.90;;;;;;5067839;28;20731;-50
2021/06/20 10:40:42;;;;;;;13.48;5.50;;;27.70;99.90;;;;;;5069261;28;20387;-50
2021/06/20 10:43:20;;;;;;;12.23;5.22;;;28.00;99.90;;;;;;5048370;28;20646;-50
2021/06/20 10:45:47;;;;;;;14.15;5.50;;;28.30;99.90;;;;;;5047646;28;20476;-49
2021/06/20 10:48:18;;;;;;;14.05;5.70;;;28.30;99.90;;;;;;5048031;28;20421;-49
2021/06/20 10:50:49;;;;;;;12.88;4.90;;;28.50;99.90;;;;;;5047439;28;20442;-49
2021/06/20 10:53:15;;;;;;;13.10;5.20;;;28.80;99.90;;;;;;5047758;28;20565;-49
2021/06/20 10:55:45;;;;;;;14.60;6.20;;;28.90;99.90;;;;;;5048843;28;20409;-49
2021/06/20 10:58:19;;;;;;;11.13;4.82;;;29.10;99.90;;;;;;5047812;28;20443;-49
2021/06/20 11:00:46;;;;;;;13.05;5.97;;;29.10;99.90;;;;;;5046554;28;20389;-49
2021/06/20 11:03:30;;;;;;;12.38;5.40;;;29.20;99.90;;;;;;5047842;28;20388;-49
2021/06/20 11:06:11;;;;;;;14.90;6.60;;;29.30;99.90;;;;;;5047997;28;20506;-49
2021/06/20 11:08:39;;;;;;;14.87;5.93;;;29.90;99.90;;;;;;5048673;28;20402;-50
2021/06/20 11:11:25;;;;;;;12.70;5.10;;;30.60;99.90;;;;;;5047615;28;20477;-50
2021/06/20 11:13:56;;;;;;;15.27;5.32;;;30.90;99.90;;;;;;5048098;28;20409;-50
2021/06/20 11:16:24;;;;;;;15.93;5.60;;;31.00;99.90;;;;;;5046661;28;20402;-50
2021/06/20 11:19:05;;;;;;;10.38;4.93;;;31.10;99.90;;;;;;5048793;28;20389;-50
2021/06/20 11:21:32;;;;;;;13.75;5.78;;;31.20;99.90;;;;;;5049030;28;20390;-50
2021/06/20 11:23:58;;;;;;;14.27;5.20;;;31.40;99.90;;;;;;5048521;28;20401;-50
2021/06/20 11:26:23;;;;;;;15.90;5.43;;;31.70;99.90;;;;;;5048191;28;20393;-49
2021/06/20 11:28:59;;;;;;;15.20;6.23;;;31.60;99.90;;;;;;5048570;28;20770;-50
2021/06/20 11:31:25;;;;;;;13.40;6.13;;;31.90;99.90;;;;;;5048506;28;20843;-50
2021/06/20 11:33:55;;;;;;;12.93;5.07;;;32.50;99.90;;;;;;5048692;28;20401;-51
2021/06/20 11:36:25;;;;;;;14.30;5.53;;;32.70;98.30;;;;;;5063545;28;21087;-50
2021/06/20 11:38:50;;;;;;;16.42;5.40;;;32.60;97.90;;;;;;5049051;28;20384;-50
2021/06/20 11:41:23;;;;;;;14.37;5.73;;;32.50;95.40;;;;;;5048231;28;20382;-50
2021/06/20 11:43:56;;;;;;;11.23;5.17;;;32.00;96.40;;;;;;5048445;28;20385;-50
2021/06/20 11:46:24;;;;;;;11.20;4.30;;;31.80;95.60;;;;;;5048000;28;20393;-49
2021/06/20 11:48:55;;;;;;;10.90;3.95;;;31.60;96.20;;;;;;5048961;28;20399;-49
2021/06/20 11:51:48;;;;;;;10.90;4.60;;;31.60;96.90;;;;;;5051644;28;21029;-51
2021/06/20 11:54:19;;;;;;;11.37;4.00;;;31.00;95.90;;;;;;5050543;28;20393;-50
2021/06/20 11:56:50;;;;;;;15.65;4.40;;;31.30;95.80;;;;;;5052304;28;20420;-51
2021/06/20 11:59:39;;;;;;;12.95;4.40;;;31.40;94.50;;;;;;5051759;28;20377;-50
2021/06/20 12:02:06;;;;;;;15.77;4.25;;;31.60;93.40;;;;;;5031534;28;20383;-50
2021/06/20 12:04:33;;;;;;;12.50;4.30;;;31.80;94.10;;;;;;5031976;28;20411;-49
2021/06/20 12:07:09;;;;;;;14.70;3.57;;;31.90;92.80;;;;;;5030945;28;20395;-50
2021/06/20 12:09:36;;;;;;;10.82;3.60;;;31.80;91.40;;;;;;5032666;28;20395;-50
2021/06/20 12:12:04;;;;;;;14.20;4.15;;;31.70;91.90;;;;;;5031963;28;20437;-52
2021/06/20 12:14:32;;;;;;;13.07;3.97;;;32.10;92.00;;;;;;5031806;28;20414;-50
2021/06/20 12:16:59;;;;;;;12.38;3.97;;;31.60;92.10;;;;;;5030796;28;20815;-50
2021/06/20 12:19:28;;;;;;;12.13;3.93;;;31.50;92.60;;;;;;5031680;28;20411;-50
2021/06/20 12:22:06;;;;;;;13.87;4.10;;;31.70;92.60;;;;;;5030437;28;20472;-50
2021/06/20 12:25:04;;;;;;;14.90;4.38;;;32.00;90.70;;;;;;5032113;28;20383;-50
2021/06/20 12:27:39;;;;;;;13.68;3.80;;;31.90;92.00;;;;;;5028589;28;20457;-50
2021/06/20 12:30:19;;;;;;;18.33;4.27;;;31.70;88.70;;;;;;5031200;28;20375;-53
2021/06/20 12:32:47;;;;;;;18.10;4.22;;;31.60;90.30;;;;;;5031820;28;20386;-49
2021/06/20 12:35:24;;;;;;;14.98;4.40;;;31.80;90.40;;;;;;5031338;28;20511;-49
2021/06/20 12:37:50;;;;;;;12.50;4.05;;;31.60;88.90;;;;;;5032068;28;20379;-49
2021/06/20 12:40:19;;;;;;;17.35;4.20;;;31.30;90.30;;;;;;5031227;28;20888;-50